sensor_id;sensor_type;location;lat;lon;timestamp;pressure;altitude;pressure_sealevel;temperature;humidity
70909;BME280;58554;52.006;5.926;2022-11-14T00:00:54;100833.94;;;9.13;58.08
70909;BME280;58554;52.006;5.926;2022-11-14T00:03:21;100822.53;;;9.12;58.06
70909;BME280;58554;52.006;5.926;2022-11-14T00:05:47;100819.03;;;9.12;58.20
70909;BME280;58554;52.006;5.926;2022-11-14T00:08:15;100822.63;;;9.11;58.06
70909;BME280;58554;52.006;5.926;2022-11-14T00:10:47;100821.66;;;9.12;58.07
70909;BME280;58554;52.006;5.926;2022-11-14T00:13:19;100819.19;;;9.09;58.10
70909;BME280;58554;52.006;5.926;2022-11-14T00:15:47;100812.38;;;9.05;58.15
70909;BME280;58554;52.006;5.926;2022-11-14T00:18:16;100814.47;;;8.98;58.21
70909;BME280;58554;52.006;5.926;2022-11-14T00:20:43;100805.06;;;8.92;58.51
70909;BME280;58554;52.006;5.926;2022-11-14T00:23:13;100803.66;;;8.85;58.67
70909;BME280;58554;52.006;5.926;2022-11-14T00:25:39;100814.19;;;8.85;58.57
70909;BME280;58554;52.006;5.926;2022-11-14T00:28:06;100814.38;;;8.82;58.73
70909;BME280;58554;52.006;5.926;2022-11-14T00:30:36;100814.28;;;8.84;58.68
70909;BME280;58554;52.006;5.926;2022-11-14T00:33:03;100808.78;;;8.88;58.88
70909;BME280;58554;52.006;5.926;2022-11-14T00:35:29;100802.50;;;8.91;58.63
70909;BME280;58554;52.006;5.926;2022-11-14T00:37:56;100809.50;;;8.92;58.62
70909;BME280;58554;52.006;5.926;2022-11-14T00:40:22;100796.44;;;8.89;58.79
70909;BME280;58554;52.006;5.926;2022-11-14T00:42:49;100797.41;;;8.88;58.76
70909;BME280;58554;52.006;5.926;2022-11-14T00:45:15;100793.88;;;8.87;58.82
70909;BME280;58554;52.006;5.926;2022-11-14T00:47:44;100793.97;;;8.86;58.76
70909;BME280;58554;52.006;5.926;2022-11-14T00:50:10;100794.81;;;8.86;58.78
70909;BME280;58554;52.006;5.926;2022-11-14T00:52:37;100792.97;;;8.88;58.64
70909;BME280;58554;52.006;5.926;2022-11-14T00:55:05;100791.25;;;8.87;58.61
70909;BME280;58554;52.006;5.926;2022-11-14T00:57:33;100786.06;;;8.86;58.76
70909;BME280;58554;52.006;5.926;2022-11-14T00:59:59;100780.03;;;8.84;58.78
70909;BME280;58554;52.006;5.926;2022-11-14T01:02:26;100778.22;;;8.84;58.84
70909;BME280;58554;52.006;5.926;2022-11-14T01:04:55;100778.28;;;8.83;58.71
70909;BME280;58554;52.006;5.926;2022-11-14T01:07:21;100775.66;;;8.83;58.89
70909;BME280;58554;52.006;5.926;2022-11-14T01:09:48;100766.91;;;8.82;58.90
70909;BME280;58554;52.006;5.926;2022-11-14T01:12:14;100766.00;;;8.83;58.95
70909;BME280;58554;52.006;5.926;2022-11-14T01:14:41;100761.56;;;8.84;58.90
70909;BME280;58554;52.006;5.926;2022-11-14T01:17:07;100761.47;;;8.85;58.72
70909;BME280;58554;52.006;5.926;2022-11-14T01:19:34;100757.19;;;8.83;58.61
70909;BME280;58554;52.006;5.926;2022-11-14T01:22:03;100755.50;;;8.82;58.63
70909;BME280;58554;52.006;5.926;2022-11-14T01:24:31;100750.31;;;8.80;58.57
70909;BME280;58554;52.006;5.926;2022-11-14T01:26:57;100750.38;;;8.79;58.64
70909;BME280;58554;52.006;5.926;2022-11-14T01:29:24;100754.97;;;8.75;58.54
70909;BME280;58554;52.006;5.926;2022-11-14T01:31:50;100745.34;;;8.74;58.71
70909;BME280;58554;52.006;5.926;2022-11-14T01:34:17;100742.94;;;8.69;58.72
70909;BME280;58554;52.006;5.926;2022-11-14T01:36:43;100735.28;;;8.65;58.76
70909;BME280;58554;52.006;5.926;2022-11-14T01:39:13;100731.84;;;8.63;58.70
70909;BME280;58554;52.006;5.926;2022-11-14T01:41:39;100722.41;;;8.59;58.78
70909;BME280;58554;52.006;5.926;2022-11-14T01:44:11;100715.63;;;8.53;58.89
70909;BME280;58554;52.006;5.926;2022-11-14T01:46:42;100715.81;;;8.50;59.06
70909;BME280;58554;52.006;5.926;2022-11-14T01:49:18;100710.72;;;8.45;59.05
70909;BME280;58554;52.006;5.926;2022-11-14T01:51:50;100704.91;;;8.39;59.15
70909;BME280;58554;52.006;5.926;2022-11-14T01:54:29;100703.28;;;8.36;59.18
70909;BME280;58554;52.006;5.926;2022-11-14T01:57:01;100706.84;;;8.35;59.41
70909;BME280;58554;52.006;5.926;2022-11-14T01:59:34;100710.41;;;8.34;59.46
70909;BME280;58554;52.006;5.926;2022-11-14T02:02:08;100696.41;;;8.34;59.43
70909;BME280;58554;52.006;5.926;2022-11-14T02:04:42;100690.44;;;8.30;59.58
70909;BME280;58554;52.006;5.926;2022-11-14T02:07:12;100696.91;;;8.23;59.76
70909;BME280;58554;52.006;5.926;2022-11-14T02:09:45;100695.16;;;8.23;59.80
70909;BME280;58554;52.006;5.926;2022-11-14T02:12:16;100692.28;;;8.28;59.79
70909;BME280;58554;52.006;5.926;2022-11-14T02:14:46;100682.81;;;8.24;59.63
70909;BME280;58554;52.006;5.926;2022-11-14T02:17:17;100682.88;;;8.22;59.76
70909;BME280;58554;52.006;5.926;2022-11-14T02:19:47;100677.69;;;8.21;59.66
70909;BME280;58554;52.006;5.926;2022-11-14T02:22:18;100668.94;;;8.20;59.90
70909;BME280;58554;52.006;5.926;2022-11-14T02:24:45;100671.56;;;8.20;59.71
70909;BME280;58554;52.006;5.926;2022-11-14T02:27:13;100668.03;;;8.21;59.81
70909;BME280;58554;52.006;5.926;2022-11-14T02:29:41;100666.22;;;8.22;59.72
70909;BME280;58554;52.006;5.926;2022-11-14T02:32:08;100662.66;;;8.23;59.67
70909;BME280;58554;52.006;5.926;2022-11-14T02:34:34;100669.78;;;8.21;59.65
70909;BME280;58554;52.006;5.926;2022-11-14T02:37:01;100669.03;;;8.19;59.80
70909;BME280;58554;52.006;5.926;2022-11-14T02:39:30;100654.06;;;8.19;59.77
70909;BME280;58554;52.006;5.926;2022-11-14T02:41:56;100661.03;;;8.20;59.66
70909;BME280;58554;52.006;5.926;2022-11-14T02:44:23;100657.72;;;8.17;59.73
70909;BME280;58554;52.006;5.926;2022-11-14T02:46:49;100654.50;;;8.10;59.77
70909;BME280;58554;52.006;5.926;2022-11-14T02:49:16;100661.56;;;8.09;59.83
70909;BME280;58554;52.006;5.926;2022-11-14T02:51:42;100659.00;;;8.08;59.84
70909;BME280;58554;52.006;5.926;2022-11-14T02:54:09;100651.19;;;8.06;59.95
70909;BME280;58554;52.006;5.926;2022-11-14T02:56:38;100654.75;;;8.05;59.79
70909;BME280;58554;52.006;5.926;2022-11-14T02:59:04;100657.44;;;8.04;59.75
70909;BME280;58554;52.006;5.926;2022-11-14T03:01:31;100651.31;;;8.03;59.83
70909;BME280;58554;52.006;5.926;2022-11-14T03:03:57;100651.31;;;8.03;59.76
70909;BME280;58554;52.006;5.926;2022-11-14T03:06:24;100652.28;;;8.02;59.90
70909;BME280;58554;52.006;5.926;2022-11-14T03:08:50;100652.09;;;8.05;59.94
70909;BME280;58554;52.006;5.926;2022-11-14T03:11:17;100651.19;;;8.06;59.70
70909;BME280;58554;52.006;5.926;2022-11-14T03:13:46;100651.19;;;8.06;59.60
70909;BME280;58554;52.006;5.926;2022-11-14T03:16:12;100646.78;;;8.07;59.73
70909;BME280;58554;52.006;5.926;2022-11-14T03:18:39;100648.47;;;8.08;59.75
70909;BME280;58554;52.006;5.926;2022-11-14T03:21:07;100637.09;;;8.07;59.81
70909;BME280;58554;52.006;5.926;2022-11-14T03:23:36;100641.50;;;8.07;59.76
70909;BME280;58554;52.006;5.926;2022-11-14T03:26:04;100641.56;;;8.05;59.67
70909;BME280;58554;52.006;5.926;2022-11-14T03:28:32;100639.09;;;8.02;59.57
70909;BME280;58554;52.006;5.926;2022-11-14T03:31:02;100631.28;;;8.01;59.64
70909;BME280;58554;52.006;5.926;2022-11-14T03:33:29;100635.59;;;8.02;59.86
70909;BME280;58554;52.006;5.926;2022-11-14T03:35:56;100625.63;;;8.08;59.80
70909;BME280;58554;52.006;5.926;2022-11-14T03:38:22;100627.34;;;8.09;59.56
70909;BME280;58554;52.006;5.926;2022-11-14T03:40:49;100620.44;;;8.07;59.69
70909;BME280;58554;52.006;5.926;2022-11-14T03:43:16;100624.88;;;8.06;59.51
70909;BME280;58554;52.006;5.926;2022-11-14T03:45:44;100620.50;;;8.05;59.57
70909;BME280;58554;52.006;5.926;2022-11-14T03:48:14;100609.97;;;8.05;59.65
70909;BME280;58554;52.006;5.926;2022-11-14T03:50:42;100616.03;;;8.07;59.63
70909;BME280;58554;52.006;5.926;2022-11-14T03:53:09;100619.59;;;8.06;59.49
70909;BME280;58554;52.006;5.926;2022-11-14T03:55:36;100614.41;;;8.05;59.72
70909;BME280;58554;52.006;5.926;2022-11-14T03:58:02;100606.56;;;8.03;59.48
70909;BME280;58554;52.006;5.926;2022-11-14T04:00:29;100603.94;;;8.03;59.55
70909;BME280;58554;52.006;5.926;2022-11-14T04:02:56;100607.41;;;8.04;59.50
70909;BME280;58554;52.006;5.926;2022-11-14T04:05:25;100597.81;;;8.03;59.33
70909;BME280;58554;52.006;5.926;2022-11-14T04:07:52;100598.06;;;7.98;59.34
70909;BME280;58554;52.006;5.926;2022-11-14T04:10:18;100597.34;;;7.95;59.52
70909;BME280;58554;52.006;5.926;2022-11-14T04:12:47;100593.94;;;7.93;59.51
70909;BME280;58554;52.006;5.926;2022-11-14T04:15:14;100588.78;;;7.89;59.31
70909;BME280;58554;52.006;5.926;2022-11-14T04:17:40;100588.91;;;7.88;59.48
70909;BME280;58554;52.006;5.926;2022-11-14T04:20:09;100585.50;;;7.86;59.53
70909;BME280;58554;52.006;5.926;2022-11-14T04:22:39;100582.06;;;7.84;59.30
70909;BME280;58554;52.006;5.926;2022-11-14T04:25:08;100587.47;;;7.81;59.31
70909;BME280;58554;52.006;5.926;2022-11-14T04:27:35;100588.41;;;7.80;59.47
70909;BME280;58554;52.006;5.926;2022-11-14T04:30:02;100593.81;;;7.77;59.28
70909;BME280;58554;52.006;5.926;2022-11-14T04:32:30;100583.38;;;7.75;59.43
70909;BME280;58554;52.006;5.926;2022-11-14T04:34:56;100579.97;;;7.73;59.39
70909;BME280;58554;52.006;5.926;2022-11-14T04:37:23;100584.47;;;7.71;59.57
70909;BME280;58554;52.006;5.926;2022-11-14T04:39:52;100576.63;;;7.69;59.38
70909;BME280;58554;52.006;5.926;2022-11-14T04:42:18;100580.28;;;7.67;59.46
70909;BME280;58554;52.006;5.926;2022-11-14T04:44:45;100577.69;;;7.65;59.53
70909;BME280;58554;52.006;5.926;2022-11-14T04:47:11;100579.63;;;7.62;59.63
70909;BME280;58554;52.006;5.926;2022-11-14T04:49:38;100571.88;;;7.59;59.43
70909;BME280;58554;52.006;5.926;2022-11-14T04:52:04;100563.34;;;7.54;59.61
70909;BME280;58554;52.006;5.926;2022-11-14T04:54:30;100564.34;;;7.51;59.61
70909;BME280;58554;52.006;5.926;2022-11-14T04:56:59;100569.78;;;7.48;59.68
70909;BME280;58554;52.006;5.926;2022-11-14T04:59:26;100563.72;;;7.46;59.82
70909;BME280;58554;52.006;5.926;2022-11-14T05:01:52;100569.06;;;7.44;59.73
70909;BME280;58554;52.006;5.926;2022-11-14T05:04:19;100564.72;;;7.43;59.96
70909;BME280;58554;52.006;5.926;2022-11-14T05:06:45;100555.13;;;7.42;59.72
70909;BME280;58554;52.006;5.926;2022-11-14T05:09:12;100560.59;;;7.38;59.81
70909;BME280;58554;52.006;5.926;2022-11-14T05:11:38;100551.13;;;7.34;59.94
70909;BME280;58554;52.006;5.926;2022-11-14T05:14:07;100554.66;;;7.32;60.07
70909;BME280;58554;52.006;5.926;2022-11-14T05:16:34;100554.66;;;7.32;60.00
70909;BME280;58554;52.006;5.926;2022-11-14T05:19:00;100555.50;;;7.33;60.02
70909;BME280;58554;52.006;5.926;2022-11-14T05:21:27;100546.84;;;7.31;59.89
70909;BME280;58554;52.006;5.926;2022-11-14T05:23:53;100550.47;;;7.28;59.94
70909;BME280;58554;52.006;5.926;2022-11-14T05:26:20;100546.22;;;7.26;59.87
70909;BME280;58554;52.006;5.926;2022-11-14T05:28:46;100548.00;;;7.25;59.94
70909;BME280;58554;52.006;5.926;2022-11-14T05:31:15;100538.47;;;7.23;60.03
70909;BME280;58554;52.006;5.926;2022-11-14T05:33:42;100541.88;;;7.25;59.89
70909;BME280;58554;52.006;5.926;2022-11-14T05:36:11;100541.97;;;7.23;59.87
70909;BME280;58554;52.006;5.926;2022-11-14T05:38:40;100542.03;;;7.22;59.87
70909;BME280;58554;52.006;5.926;2022-11-14T05:41:08;100541.19;;;7.21;59.98
70909;BME280;58554;52.006;5.926;2022-11-14T05:43:36;100532.50;;;7.19;60.15
70909;BME280;58554;52.006;5.926;2022-11-14T05:46:04;100529.88;;;7.19;59.97
70909;BME280;58554;52.006;5.926;2022-11-14T05:48:34;100529.94;;;7.18;59.95
70909;BME280;58554;52.006;5.926;2022-11-14T05:51:03;100530.94;;;7.15;60.07
70909;BME280;58554;52.006;5.926;2022-11-14T05:53:32;100520.50;;;7.14;60.18
70909;BME280;58554;52.006;5.926;2022-11-14T05:55:59;100526.69;;;7.13;60.04
70909;BME280;58554;52.006;5.926;2022-11-14T05:58:27;100514.53;;;7.10;59.94
70909;BME280;58554;52.006;5.926;2022-11-14T06:01:01;100517.25;;;7.08;60.18
70909;BME280;58554;52.006;5.926;2022-11-14T06:03:31;100504.09;;;7.08;60.26
70909;BME280;58554;52.006;5.926;2022-11-14T06:06:03;100513.75;;;7.08;60.05
70909;BME280;58554;52.006;5.926;2022-11-14T06:08:33;100514.69;;;7.07;60.20
70909;BME280;58554;52.006;5.926;2022-11-14T06:11:01;100517.31;;;7.07;60.38
70909;BME280;58554;52.006;5.926;2022-11-14T06:13:29;100519.94;;;7.07;60.16
70909;BME280;58554;52.006;5.926;2022-11-14T06:15:58;100511.22;;;7.06;60.27
70909;BME280;58554;52.006;5.926;2022-11-14T06:18:25;100512.97;;;7.06;60.36
70909;BME280;58554;52.006;5.926;2022-11-14T06:20:57;100516.59;;;7.03;60.12
70909;BME280;58554;52.006;5.926;2022-11-14T06:23:24;100518.50;;;7.00;60.34
70909;BME280;58554;52.006;5.926;2022-11-14T06:25:51;100514.53;;;6.91;60.31
70909;BME280;58554;52.006;5.926;2022-11-14T06:28:17;100524.34;;;6.87;60.49
70909;BME280;58554;52.006;5.926;2022-11-14T06:30:44;100524.41;;;6.86;60.61
70909;BME280;58554;52.006;5.926;2022-11-14T06:33:10;100527.03;;;6.86;60.61
70909;BME280;58554;52.006;5.926;2022-11-14T06:35:36;100526.25;;;6.84;60.44
70909;BME280;58554;52.006;5.926;2022-11-14T06:38:05;100527.25;;;6.81;60.38
70909;BME280;58554;52.006;5.926;2022-11-14T06:40:32;100528.44;;;6.74;60.53
70909;BME280;58554;52.006;5.926;2022-11-14T06:42:58;100533.75;;;6.73;60.81
70909;BME280;58554;52.006;5.926;2022-11-14T06:45:25;100525.75;;;6.76;60.60
70909;BME280;58554;52.006;5.926;2022-11-14T06:47:51;100530.16;;;6.75;60.67
70909;BME280;58554;52.006;5.926;2022-11-14T06:50:18;100525.75;;;6.76;60.81
70909;BME280;58554;52.006;5.926;2022-11-14T06:52:44;100524.91;;;6.75;60.78
70909;BME280;58554;52.006;5.926;2022-11-14T06:55:13;100527.38;;;6.78;60.52
70909;BME280;58554;52.006;5.926;2022-11-14T06:57:40;100525.69;;;6.77;60.36
70909;BME280;58554;52.006;5.926;2022-11-14T07:00:09;100530.16;;;6.75;60.51
70909;BME280;58554;52.006;5.926;2022-11-14T07:02:36;100532.13;;;6.70;60.23
70909;BME280;58554;52.006;5.926;2022-11-14T07:05:04;100522.91;;;6.61;60.36
70909;BME280;58554;52.006;5.926;2022-11-14T07:07:31;100529.41;;;6.53;60.34
70909;BME280;58554;52.006;5.926;2022-11-14T07:09:57;100528.22;;;6.39;60.26
70909;BME280;58554;52.006;5.926;2022-11-14T07:12:26;100531.38;;;6.27;60.45
70909;BME280;58554;52.006;5.926;2022-11-14T07:14:53;100540.59;;;6.17;60.56
70909;BME280;58554;52.006;5.926;2022-11-14T07:17:19;100542.81;;;6.05;60.65
70909;BME280;58554;52.006;5.926;2022-11-14T07:19:45;100538.88;;;5.95;60.87
70909;BME280;58554;52.006;5.926;2022-11-14T07:22:12;100536.75;;;5.83;60.81
70909;BME280;58554;52.006;5.926;2022-11-14T07:24:38;100540.75;;;5.71;61.21
70909;BME280;58554;52.006;5.926;2022-11-14T07:27:05;100543.72;;;5.62;61.12
70909;BME280;58554;52.006;5.926;2022-11-14T07:29:34;100551.97;;;5.53;61.17
70909;BME280;58554;52.006;5.926;2022-11-14T07:32:00;100546.19;;;5.44;61.46
70909;BME280;58554;52.006;5.926;2022-11-14T07:34:27;100540.38;;;5.36;61.72
70909;BME280;58554;52.006;5.926;2022-11-14T07:36:53;100533.66;;;5.29;61.91
70909;BME280;58554;52.006;5.926;2022-11-14T07:39:20;100542.75;;;5.20;61.79
70909;BME280;58554;52.006;5.926;2022-11-14T07:41:46;100536.03;;;5.13;62.19
70909;BME280;58554;52.006;5.926;2022-11-14T07:44:12;100531.94;;;5.06;62.29
70909;BME280;58554;52.006;5.926;2022-11-14T07:46:41;100529.53;;;5.00;62.36
70909;BME280;58554;52.006;5.926;2022-11-14T07:49:08;100535.84;;;4.94;62.63
70909;BME280;58554;52.006;5.926;2022-11-14T07:51:34;100529.06;;;4.88;62.63
70909;BME280;58554;52.006;5.926;2022-11-14T07:54:01;100525.78;;;4.83;62.66
70909;BME280;58554;52.006;5.926;2022-11-14T07:56:28;100531.19;;;4.79;63.04
70909;BME280;58554;52.006;5.926;2022-11-14T07:58:55;100530.50;;;4.74;63.11
70909;BME280;58554;52.006;5.926;2022-11-14T08:01:22;100526.34;;;4.68;63.13
70909;BME280;58554;52.006;5.926;2022-11-14T08:03:51;100522.13;;;4.64;63.43
70909;BME280;58554;52.006;5.926;2022-11-14T08:06:17;100519.56;;;4.62;63.49
70909;BME280;58554;52.006;5.926;2022-11-14T08:08:44;100515.34;;;4.58;63.72
70909;BME280;58554;52.006;5.926;2022-11-14T08:11:10;100522.34;;;4.58;63.53
70909;BME280;58554;52.006;5.926;2022-11-14T08:13:37;100516.31;;;4.56;63.80
70909;BME280;58554;52.006;5.926;2022-11-14T08:16:05;100515.47;;;4.55;63.98
70909;BME280;58554;52.006;5.926;2022-11-14T08:18:33;100514.63;;;4.55;64.08
70909;BME280;58554;52.006;5.926;2022-11-14T08:21:05;100506.75;;;4.55;64.12
70909;BME280;58554;52.006;5.926;2022-11-14T08:23:32;100504.19;;;4.53;64.04
70909;BME280;58554;52.006;5.926;2022-11-14T08:25:59;100493.75;;;4.52;64.40
70909;BME280;58554;52.006;5.926;2022-11-14T08:28:25;100494.75;;;4.49;64.31
70909;BME280;58554;52.006;5.926;2022-11-14T08:30:52;100493.88;;;4.48;64.57
70909;BME280;58554;52.006;5.926;2022-11-14T08:33:24;100492.13;;;4.49;64.58
70909;BME280;58554;52.006;5.926;2022-11-14T08:35:50;100492.13;;;4.49;64.52
70909;BME280;58554;52.006;5.926;2022-11-14T08:38:20;100486.88;;;4.49;64.63
70909;BME280;58554;52.006;5.926;2022-11-14T08:40:46;100478.97;;;4.51;64.78
70909;BME280;58554;52.006;5.926;2022-11-14T08:43:12;100490.25;;;4.53;64.68
70909;BME280;58554;52.006;5.926;2022-11-14T08:45:39;100488.47;;;4.53;64.88
70909;BME280;58554;52.006;5.926;2022-11-14T08:48:05;100489.28;;;4.55;64.98
70909;BME280;58554;52.006;5.926;2022-11-14T08:50:32;100485.69;;;4.58;64.74
70909;BME280;58554;52.006;5.926;2022-11-14T08:52:59;100493.53;;;4.58;65.06
70909;BME280;58554;52.006;5.926;2022-11-14T08:55:28;100492.66;;;4.59;64.91
70909;BME280;58554;52.006;5.926;2022-11-14T08:57:54;100487.41;;;4.59;65.13
70909;BME280;58554;52.006;5.926;2022-11-14T09:00:21;100487.31;;;4.60;65.09
70909;BME280;58554;52.006;5.926;2022-11-14T09:02:48;100487.22;;;4.63;65.04
70909;BME280;58554;52.006;5.926;2022-11-14T09:05:14;100481.06;;;4.64;65.22
70909;BME280;58554;52.006;5.926;2022-11-14T09:07:41;100481.94;;;4.65;65.17
70909;BME280;58554;52.006;5.926;2022-11-14T09:10:08;100487.91;;;4.68;65.46
70909;BME280;58554;52.006;5.926;2022-11-14T09:12:37;100482.75;;;4.67;65.36
70909;BME280;58554;52.006;5.926;2022-11-14T09:15:05;100484.47;;;4.66;65.43
70909;BME280;58554;52.006;5.926;2022-11-14T09:17:33;100478.34;;;4.67;65.65
70909;BME280;58554;52.006;5.926;2022-11-14T09:19:59;100474.09;;;4.65;65.46
70909;BME280;58554;52.006;5.926;2022-11-14T09:22:26;100472.41;;;4.62;65.63
70909;BME280;58554;52.006;5.926;2022-11-14T09:24:52;100468.06;;;4.63;65.95
70909;BME280;58554;52.006;5.926;2022-11-14T09:27:18;100463.72;;;4.62;66.16
70909;BME280;58554;52.006;5.926;2022-11-14T09:29:47;100462.69;;;4.66;66.05
70909;BME280;58554;52.006;5.926;2022-11-14T09:32:14;100460.81;;;4.70;66.13
70909;BME280;58554;52.006;5.926;2022-11-14T09:34:40;100466.72;;;4.75;66.13
70909;BME280;58554;52.006;5.926;2022-11-14T09:37:07;100464.78;;;4.80;66.26
70909;BME280;58554;52.006;5.926;2022-11-14T09:39:33;100465.59;;;4.82;66.10
70909;BME280;58554;52.006;5.926;2022-11-14T09:42:10;100469.75;;;4.87;66.09
70909;BME280;58554;52.006;5.926;2022-11-14T09:44:58;100459.81;;;4.96;66.25
70909;BME280;58554;52.006;5.926;2022-11-14T09:47:29;100459.59;;;5.02;66.14
70909;BME280;58554;52.006;5.926;2022-11-14T09:50:05;100461.97;;;5.08;66.13
70909;BME280;58554;52.006;5.926;2022-11-14T09:52:37;100460.88;;;5.14;66.08
70909;BME280;58554;52.006;5.926;2022-11-14T09:55:11;100464.25;;;5.17;66.21
70909;BME280;58554;52.006;5.926;2022-11-14T09:57:43;100454.56;;;5.19;66.04
70909;BME280;58554;52.006;5.926;2022-11-14T10:00:18;100467.53;;;5.22;66.38
70909;BME280;58554;52.006;5.926;2022-11-14T10:02:59;100449.91;;;5.26;66.54
70909;BME280;58554;52.006;5.926;2022-11-14T10:05:43;100438.38;;;5.30;66.63
70909;BME280;58554;52.006;5.926;2022-11-14T10:08:32;100442.66;;;5.33;66.61
70909;BME280;58554;52.006;5.926;2022-11-14T10:11:15;100440.81;;;5.35;67.00
70909;BME280;58554;52.006;5.926;2022-11-14T10:17:45;100426.34;;;5.46;66.74
70909;BME280;58554;52.006;5.926;2022-11-14T10:20:29;100426.09;;;5.53;66.55
70909;BME280;58554;52.006;5.926;2022-11-14T10:23:15;100435.59;;;5.55;66.82
70909;BME280;58554;52.006;5.926;2022-11-14T10:25:54;100434.56;;;5.59;66.74
70909;BME280;58554;52.006;5.926;2022-11-14T10:28:40;100434.25;;;5.67;66.68
70909;BME280;58554;52.006;5.926;2022-11-14T10:31:24;100431.41;;;5.72;67.04
70909;BME280;58554;52.006;5.926;2022-11-14T10:34:13;100429.38;;;5.78;66.76
70909;BME280;58554;52.006;5.926;2022-11-14T10:36:56;100424.81;;;5.83;66.82
70909;BME280;58554;52.006;5.926;2022-11-14T10:39:35;100419.41;;;5.86;66.80
70909;BME280;58554;52.006;5.926;2022-11-14T10:42:12;100408.69;;;5.91;66.92
70909;BME280;58554;52.006;5.926;2022-11-14T10:44:48;100407.59;;;5.97;66.87
70909;BME280;58554;52.006;5.926;2022-11-14T10:47:20;100403.91;;;6.01;67.05
70909;BME280;58554;52.006;5.926;2022-11-14T10:49:54;100405.44;;;6.06;66.93
70909;BME280;58554;52.006;5.926;2022-11-14T10:52:35;100406.13;;;6.10;67.02
70909;BME280;58554;52.006;5.926;2022-11-14T10:55:12;100399.75;;;6.16;67.06
70909;BME280;58554;52.006;5.926;2022-11-14T10:57:40;100401.31;;;6.20;67.18
70909;BME280;58554;52.006;5.926;2022-11-14T11:00:15;100400.19;;;6.25;67.09
70909;BME280;58554;52.006;5.926;2022-11-14T11:02:48;100402.53;;;6.32;67.21
70909;BME280;58554;52.006;5.926;2022-11-14T11:05:21;100391.81;;;6.36;66.87
70909;BME280;58554;52.006;5.926;2022-11-14T11:07:51;100404.81;;;6.39;67.01
70909;BME280;58554;52.006;5.926;2022-11-14T11:10:21;100398.47;;;6.43;67.22
70909;BME280;58554;52.006;5.926;2022-11-14T11:12:50;100384.38;;;6.46;67.20
70909;BME280;58554;52.006;5.926;2022-11-14T11:15:20;100387.78;;;6.48;66.98
70909;BME280;58554;52.006;5.926;2022-11-14T11:17:55;100381.47;;;6.52;67.15
70909;BME280;58554;52.006;5.926;2022-11-14T11:20:30;100369.88;;;6.56;66.99
70909;BME280;58554;52.006;5.926;2022-11-14T11:23:03;100373.22;;;6.60;66.99
70909;BME280;58554;52.006;5.926;2022-11-14T11:25:32;100368.59;;;6.65;67.12
70909;BME280;58554;52.006;5.926;2022-11-14T11:28:08;100373.69;;;6.68;67.09
70909;BME280;58554;52.006;5.926;2022-11-14T11:30:38;100376.09;;;6.73;67.00
70909;BME280;58554;52.006;5.926;2022-11-14T11:33:15;100371.44;;;6.79;67.39
70909;BME280;58554;52.006;5.926;2022-11-14T11:35:53;100373.78;;;6.85;67.40
70909;BME280;58554;52.006;5.926;2022-11-14T11:38:24;100373.44;;;6.91;67.46
70909;BME280;58554;52.006;5.926;2022-11-14T11:40:57;100383.59;;;6.99;67.11
70909;BME280;58554;52.006;5.926;2022-11-14T11:43:35;100372.00;;;7.03;67.26
70909;BME280;58554;52.006;5.926;2022-11-14T11:46:13;100375.34;;;7.07;67.26
70909;BME280;58554;52.006;5.926;2022-11-14T11:48:45;100374.25;;;7.11;67.45
70909;BME280;58554;52.006;5.926;2022-11-14T11:51:23;100392.50;;;7.14;67.36
70909;BME280;58554;52.006;5.926;2022-11-14T11:53:57;100389.81;;;7.16;67.24
70909;BME280;58554;52.006;5.926;2022-11-14T11:56:31;100392.38;;;7.17;67.27
70909;BME280;58554;52.006;5.926;2022-11-14T11:59:09;100387.09;;;7.17;67.04
70909;BME280;58554;52.006;5.926;2022-11-14T12:01:47;100380.06;;;7.18;67.25
70909;BME280;58554;52.006;5.926;2022-11-14T12:04:16;100372.09;;;7.19;67.37
70909;BME280;58554;52.006;5.926;2022-11-14T12:06:52;100369.31;;;7.22;67.20
70909;BME280;58554;52.006;5.926;2022-11-14T12:09:29;100374.44;;;7.25;67.13
70909;BME280;58554;52.006;5.926;2022-11-14T12:12:05;100367.38;;;7.26;67.07
70909;BME280;58554;52.006;5.926;2022-11-14T12:14:53;100358.66;;;7.25;67.17
70909;BME280;58554;52.006;5.926;2022-11-14T12:17:42;100348.22;;;7.24;67.27
70909;BME280;58554;52.006;5.926;2022-11-14T12:20:46;100343.84;;;7.23;67.15
70909;BME280;58554;52.006;5.926;2022-11-14T12:23:52;100341.88;;;7.28;67.17
70909;BME280;58554;52.006;5.926;2022-11-14T12:26:54;100345.19;;;7.31;67.04
70909;BME280;58554;52.006;5.926;2022-11-14T12:29:46;100341.50;;;7.36;67.06
70909;BME280;58554;52.006;5.926;2022-11-14T12:32:31;100335.13;;;7.40;67.14
70909;BME280;58554;52.006;5.926;2022-11-14T12:35:05;100334.16;;;7.42;66.97
70909;BME280;58554;52.006;5.926;2022-11-14T12:37:43;100333.31;;;7.42;67.13
70909;BME280;58554;52.006;5.926;2022-11-14T12:40:23;100331.59;;;7.41;66.91
70909;BME280;58554;52.006;5.926;2022-11-14T12:42:55;100320.19;;;7.40;66.99
70909;BME280;58554;52.006;5.926;2022-11-14T12:48:32;100317.44;;;7.43;66.83
70909;BME280;58554;52.006;5.926;2022-11-14T12:51:02;100310.47;;;7.42;67.06
70909;BME280;58554;52.006;5.926;2022-11-14T12:53:42;100316.66;;;7.41;66.93
70909;BME280;58554;52.006;5.926;2022-11-14T12:56:44;100295.63;;;7.41;67.17
70909;BME280;58554;52.006;5.926;2022-11-14T12:59:31;100298.94;;;7.45;67.19
70909;BME280;58554;52.006;5.926;2022-11-14T13:02:23;100293.53;;;7.48;66.96
70909;BME280;58554;52.006;5.926;2022-11-14T13:05:22;100282.91;;;7.49;67.20
70909;BME280;58554;52.006;5.926;2022-11-14T13:08:14;100277.59;;;7.51;66.91
70909;BME280;58554;52.006;5.926;2022-11-14T13:10:55;100274.03;;;7.52;67.06
70909;BME280;58554;52.006;5.926;2022-11-14T13:13:25;100273.09;;;7.53;67.04
70909;BME280;58554;52.006;5.926;2022-11-14T13:15:52;100270.47;;;7.53;67.04
70909;BME280;58554;52.006;5.926;2022-11-14T13:18:23;100280.91;;;7.55;66.87
70909;BME280;58554;52.006;5.926;2022-11-14T13:21:00;100278.19;;;7.56;66.76
70909;BME280;58554;52.006;5.926;2022-11-14T13:23:53;100274.63;;;7.57;66.81